sensor_id;sensor_type;location;lat;lon;timestamp;pressure;altitude;pressure_sealevel;temperature;humidity
3254;BME280;1639;42.804;23.342;2023-03-03T00:02:14;74002.38;;;-148.52;100.00
3254;BME280;1639;42.804;23.342;2023-03-03T00:04:40;74002.38;;;-148.52;100.00
3254;BME280;1639;42.804;23.342;2023-03-03T00:07:05;74000.31;;;-148.52;100.00
3254;BME280;1639;42.804;23.342;2023-03-03T00:09:30;74006.53;;;-148.52;100.00
3254;BME280;1639;42.804;23.342;2023-03-03T00:11:57;74002.38;;;-148.52;100.00
3254;BME280;1639;42.804;23.342;2023-03-03T00:14:29;73998.25;;;-148.52;100.00
3254;BME280;1639;42.804;23.342;2023-03-03T00:16:57;73985.81;;;-148.52;100.00
3254;BME280;1639;42.804;23.342;2023-03-03T00:19:24;73996.16;;;-148.52;100.00
3254;BME280;1639;42.804;23.342;2023-03-03T00:21:51;73992.03;;;-148.52;100.00
3254;BME280;1639;42.804;23.342;2023-03-03T00:24:22;73994.09;;;-148.52;100.00
3254;BME280;1639;42.804;23.342;2023-03-03T00:26:53;74000.31;;;-148.52;100.00
3254;BME280;1639;42.804;23.342;2023-03-03T00:29:40;73996.16;;;-148.52;100.00
3254;BME280;1639;42.804;23.342;2023-03-03T00:32:29;73989.97;;;-148.52;100.00
3254;BME280;1639;42.804;23.342;2023-03-03T00:35:15;73992.03;;;-148.52;100.00
3254;BME280;1639;42.804;23.342;2023-03-03T00:37:42;73983.75;;;-148.52;100.00
3254;BME280;1639;42.804;23.342;2023-03-03T00:40:13;73985.81;;;-148.52;100.00
3254;BME280;1639;42.804;23.342;2023-03-03T00:42:49;73992.03;;;-148.52;100.00
3254;BME280;1639;42.804;23.342;2023-03-03T00:45:42;73983.75;;;-148.52;100.00
3254;BME280;1639;42.804;23.342;2023-03-03T00:48:21;73963.06;;;-148.52;100.00
3254;BME280;1639;42.804;23.342;2023-03-03T00:50:46;73952.72;;;-148.52;100.00
3254;BME280;1639;42.804;23.342;2023-03-03T00:53:14;73950.66;;;-148.52;100.00
3254;BME280;1639;42.804;23.342;2023-03-03T00:55:44;73952.72;;;-148.52;100.00
3254;BME280;1639;42.804;23.342;2023-03-03T00:58:11;73952.72;;;-148.52;100.00
3254;BME280;1639;42.804;23.342;2023-03-03T01:00:37;73950.66;;;-148.52;100.00
3254;BME280;1639;42.804;23.342;2023-03-03T01:03:05;73938.25;;;-148.52;100.00
3254;BME280;1639;42.804;23.342;2023-03-03T01:05:31;73934.13;;;-148.52;100.00
3254;BME280;1639;42.804;23.342;2023-03-03T01:07:56;73934.13;;;-148.52;100.00
3254;BME280;1639;42.804;23.342;2023-03-03T01:10:22;73932.03;;;-148.52;100.00
3254;BME280;1639;42.804;23.342;2023-03-03T01:12:48;73940.31;;;-148.52;100.00
3254;BME280;1639;42.804;23.342;2023-03-03T01:15:14;73932.03;;;-148.52;100.00
3254;BME280;1639;42.804;23.342;2023-03-03T01:17:41;73923.78;;;-148.52;100.00
3254;BME280;1639;42.804;23.342;2023-03-03T01:20:10;73929.97;;;-148.52;100.00
3254;BME280;1639;42.804;23.342;2023-03-03T01:22:36;73921.69;;;-148.52;100.00
3254;BME280;1639;42.804;23.342;2023-03-03T01:25:02;73923.78;;;-148.52;100.00
3254;BME280;1639;42.804;23.342;2023-03-03T01:27:29;73919.63;;;-148.52;100.00
3254;BME280;1639;42.804;23.342;2023-03-03T01:29:55;73913.44;;;-148.52;100.00
3254;BME280;1639;42.804;23.342;2023-03-03T01:32:21;73917.56;;;-148.52;100.00
3254;BME280;1639;42.804;23.342;2023-03-03T01:34:47;73919.63;;;-148.52;100.00
3254;BME280;1639;42.804;23.342;2023-03-03T01:37:12;73917.56;;;-148.52;100.00
3254;BME280;1639;42.804;23.342;2023-03-03T01:39:38;73921.69;;;-148.52;100.00
3254;BME280;1639;42.804;23.342;2023-03-03T01:42:03;73911.34;;;-148.52;100.00
3254;BME280;1639;42.804;23.342;2023-03-03T01:44:29;73907.22;;;-148.52;100.00
3254;BME280;1639;42.804;23.342;2023-03-03T01:47:08;73894.81;;;-148.52;100.00
3254;BME280;1639;42.804;23.342;2023-03-03T01:52:25;73888.59;;;-148.52;100.00
3254;BME280;1639;42.804;23.342;2023-03-03T01:54:56;73898.94;;;-148.52;100.00
3254;BME280;1639;42.804;23.342;2023-03-03T01:57:28;73896.88;;;-148.52;100.00
3254;BME280;1639;42.804;23.342;2023-03-03T01:59:57;73907.22;;;-148.52;100.00
3254;BME280;1639;42.804;23.342;2023-03-03T02:02:26;73905.16;;;-148.52;100.00
3254;BME280;1639;42.804;23.342;2023-03-03T02:04:52;73913.44;;;-148.52;100.00
3254;BME280;1639;42.804;23.342;2023-03-03T02:07:18;73905.16;;;-148.52;100.00
3254;BME280;1639;42.804;23.342;2023-03-03T02:09:58;73909.28;;;-148.52;100.00
3254;BME280;1639;42.804;23.342;2023-03-03T02:12:52;73907.22;;;-148.52;100.00
3254;BME280;1639;42.804;23.342;2023-03-03T02:15:30;73898.94;;;-148.52;100.00
3254;BME280;1639;42.804;23.342;2023-03-03T02:17:58;73901.00;;;-148.52;100.00
3254;BME280;1639;42.804;23.342;2023-03-03T02:25:43;73909.28;;;-148.52;100.00
3254;BME280;1639;42.804;23.342;2023-03-03T02:28:12;73911.34;;;-148.52;100.00
3254;BME280;1639;42.804;23.342;2023-03-03T02:30:38;73915.50;;;-148.52;100.00
3254;BME280;1639;42.804;23.342;2023-03-03T02:33:05;73905.16;;;-148.52;100.00
3254;BME280;1639;42.804;23.342;2023-03-03T02:35:36;73901.00;;;-148.52;100.00
3254;BME280;1639;42.804;23.342;2023-03-03T02:38:09;73898.94;;;-148.52;100.00
3254;BME280;1639;42.804;23.342;2023-03-03T02:40:39;73909.28;;;-148.52;100.00
3254;BME280;1639;42.804;23.342;2023-03-03T02:43:08;73903.09;;;-148.52;100.00
3254;BME280;1639;42.804;23.342;2023-03-03T02:45:43;73913.44;;;-148.52;100.00
3254;BME280;1639;42.804;23.342;2023-03-03T02:48:08;73909.28;;;-148.52;100.00
3254;BME280;1639;42.804;23.342;2023-03-03T02:50:34;73911.34;;;-148.52;100.00
3254;BME280;1639;42.804;23.342;2023-03-03T02:52:59;73911.34;;;-148.52;100.00
3254;BME280;1639;42.804;23.342;2023-03-03T02:55:25;73896.88;;;-148.52;100.00
3254;BME280;1639;42.804;23.342;2023-03-03T02:57:50;73919.63;;;-148.52;100.00
3254;BME280;1639;42.804;23.342;2023-03-03T03:00:16;73911.34;;;-148.52;100.00
3254;BME280;1639;42.804;23.342;2023-03-03T03:02:41;73907.22;;;-148.52;100.00
3254;BME280;1639;42.804;23.342;2023-03-03T03:05:07;73911.34;;;-148.52;100.00
3254;BME280;1639;42.804;23.342;2023-03-03T03:07:33;73907.22;;;-148.52;100.00
3254;BME280;1639;42.804;23.342;2023-03-03T03:09:58;73907.22;;;-148.52;100.00
3254;BME280;1639;42.804;23.342;2023-03-03T03:12:24;73917.56;;;-148.52;100.00
3254;BME280;1639;42.804;23.342;2023-03-03T03:14:49;73923.78;;;-148.52;100.00
3254;BME280;1639;42.804;23.342;2023-03-03T03:17:14;73915.50;;;-148.52;100.00
3254;BME280;1639;42.804;23.342;2023-03-03T03:19:40;73911.34;;;-148.52;100.00
3254;BME280;1639;42.804;23.342;2023-03-03T03:22:05;73925.84;;;-148.52;100.00
3254;BME280;1639;42.804;23.342;2023-03-03T03:24:31;73923.78;;;-148.52;100.00
3254;BME280;1639;42.804;23.342;2023-03-03T03:26:56;73915.50;;;-148.52;100.00
3254;BME280;1639;42.804;23.342;2023-03-03T03:29:21;73913.44;;;-148.52;100.00
3254;BME280;1639;42.804;23.342;2023-03-03T03:31:47;73919.63;;;-148.52;100.00
3254;BME280;1639;42.804;23.342;2023-03-03T03:34:12;73925.84;;;-148.52;100.00
3254;BME280;1639;42.804;23.342;2023-03-03T03:36:37;73917.56;;;-148.52;100.00
3254;BME280;1639;42.804;23.342;2023-03-03T03:39:04;73915.50;;;-148.52;100.00
3254;BME280;1639;42.804;23.342;2023-03-03T03:41:30;73909.28;;;-148.52;100.00
3254;BME280;1639;42.804;23.342;2023-03-03T03:43:56;73915.50;;;-148.52;100.00
3254;BME280;1639;42.804;23.342;2023-03-03T03:46:21;73913.44;;;-148.52;100.00
3254;BME280;1639;42.804;23.342;2023-03-03T03:48:47;73907.22;;;-148.52;100.00
3254;BME280;1639;42.804;23.342;2023-03-03T03:51:12;73911.34;;;-148.52;100.00
3254;BME280;1639;42.804;23.342;2023-03-03T03:53:38;73894.81;;;-148.52;100.00
3254;BME280;1639;42.804;23.342;2023-03-03T03:56:03;73890.66;;;-148.52;100.00
3254;BME280;1639;42.804;23.342;2023-03-03T03:58:29;73880.31;;;-148.52;100.00
3254;BME280;1639;42.804;23.342;2023-03-03T04:00:54;73874.13;;;-148.52;100.00
3254;BME280;1639;42.804;23.342;2023-03-03T04:03:20;73878.25;;;-148.52;100.00
3254;BME280;1639;42.804;23.342;2023-03-03T04:05:45;73874.13;;;-148.52;100.00
3254;BME280;1639;42.804;23.342;2023-03-03T04:08:11;73880.31;;;-148.52;100.00
3254;BME280;1639;42.804;23.342;2023-03-03T04:10:37;73886.53;;;-148.52;100.00
3254;BME280;1639;42.804;23.342;2023-03-03T04:13:02;73878.25;;;-148.52;100.00
3254;BME280;1639;42.804;23.342;2023-03-03T04:15:27;73878.25;;;-148.52;100.00
3254;BME280;1639;42.804;23.342;2023-03-03T04:17:53;73869.97;;;-148.52;100.00
3254;BME280;1639;42.804;23.342;2023-03-03T04:20:18;73865.84;;;-148.52;100.00
3254;BME280;1639;42.804;23.342;2023-03-03T04:22:44;73865.84;;;-148.52;100.00
3254;BME280;1639;42.804;23.342;2023-03-03T04:25:13;73874.13;;;-148.52;100.00
3254;BME280;1639;42.804;23.342;2023-03-03T04:27:39;73865.84;;;-148.52;100.00
3254;BME280;1639;42.804;23.342;2023-03-03T04:30:05;73857.56;;;-148.52;100.00
3254;BME280;1639;42.804;23.342;2023-03-03T04:32:31;73865.84;;;-148.52;100.00
3254;BME280;1639;42.804;23.342;2023-03-03T04:34:58;73876.19;;;-148.52;100.00
3254;BME280;1639;42.804;23.342;2023-03-03T04:37:23;73874.13;;;-148.52;100.00
3254;BME280;1639;42.804;23.342;2023-03-03T04:39:49;73872.06;;;-148.52;100.00
3254;BME280;1639;42.804;23.342;2023-03-03T04:42:14;73886.53;;;-148.52;100.00
3254;BME280;1639;42.804;23.342;2023-03-03T04:44:40;73880.31;;;-148.52;100.00
3254;BME280;1639;42.804;23.342;2023-03-03T04:47:05;73882.41;;;-148.52;100.00
3254;BME280;1639;42.804;23.342;2023-03-03T04:49:30;73890.66;;;-148.52;100.00
3254;BME280;1639;42.804;23.342;2023-03-03T04:51:56;73894.81;;;-148.52;100.00
3254;BME280;1639;42.804;23.342;2023-03-03T04:54:21;73882.41;;;-148.52;100.00
3254;BME280;1639;42.804;23.342;2023-03-03T04:56:47;73894.81;;;-148.52;100.00
3254;BME280;1639;42.804;23.342;2023-03-03T04:59:12;73890.66;;;-148.52;100.00
3254;BME280;1639;42.804;23.342;2023-03-03T05:01:38;73890.66;;;-148.52;100.00
3254;BME280;1639;42.804;23.342;2023-03-03T05:04:03;73903.09;;;-148.52;100.00
3254;BME280;1639;42.804;23.342;2023-03-03T05:06:29;73896.88;;;-148.52;100.00
3254;BME280;1639;42.804;23.342;2023-03-03T05:08:54;73894.81;;;-148.52;100.00
3254;BME280;1639;42.804;23.342;2023-03-03T05:11:20;73903.09;;;-148.52;100.00
3254;BME280;1639;42.804;23.342;2023-03-03T05:13:45;73894.81;;;-148.52;100.00
3254;BME280;1639;42.804;23.342;2023-03-03T05:16:10;73898.94;;;-148.52;100.00
3254;BME280;1639;42.804;23.342;2023-03-03T05:18:36;73905.16;;;-148.52;100.00
3254;BME280;1639;42.804;23.342;2023-03-03T05:21:02;73894.81;;;-148.52;100.00
3254;BME280;1639;42.804;23.342;2023-03-03T05:23:27;73894.81;;;-148.52;100.00
3254;BME280;1639;42.804;23.342;2023-03-03T05:25:53;73901.00;;;-148.52;100.00
3254;BME280;1639;42.804;23.342;2023-03-03T05:28:18;73890.66;;;-148.52;100.00
3254;BME280;1639;42.804;23.342;2023-03-03T05:30:44;73894.81;;;-148.52;100.00
3254;BME280;1639;42.804;23.342;2023-03-03T05:33:12;73890.66;;;-148.52;100.00
3254;BME280;1639;42.804;23.342;2023-03-03T05:35:38;73896.88;;;-148.52;100.00
3254;BME280;1639;42.804;23.342;2023-03-03T05:38:04;73909.28;;;-148.52;100.00
3254;BME280;1639;42.804;23.342;2023-03-03T05:40:29;73909.28;;;-148.52;100.00
3254;BME280;1639;42.804;23.342;2023-03-03T05:42:54;73898.94;;;-148.52;100.00
3254;BME280;1639;42.804;23.342;2023-03-03T05:45:20;73890.66;;;-148.52;100.00
3254;BME280;1639;42.804;23.342;2023-03-03T05:47:52;73896.88;;;-148.52;100.00
3254;BME280;1639;42.804;23.342;2023-03-03T05:50:21;73894.81;;;-148.52;100.00
3254;BME280;1639;42.804;23.342;2023-03-03T05:52:50;73894.81;;;-148.52;100.00
3254;BME280;1639;42.804;23.342;2023-03-03T05:55:16;73892.75;;;-148.52;100.00
3254;BME280;1639;42.804;23.342;2023-03-03T05:57:42;73888.59;;;-148.52;100.00
3254;BME280;1639;42.804;23.342;2023-03-03T06:00:08;73894.81;;;-148.52;100.00
3254;BME280;1639;42.804;23.342;2023-03-03T06:02:33;73915.50;;;-148.52;100.00
3254;BME280;1639;42.804;23.342;2023-03-03T06:04:59;73903.09;;;-148.52;100.00
3254;BME280;1639;42.804;23.342;2023-03-03T06:07:25;73894.81;;;-148.52;100.00
3254;BME280;1639;42.804;23.342;2023-03-03T06:09:50;73898.94;;;-148.52;100.00
3254;BME280;1639;42.804;23.342;2023-03-03T06:12:15;73890.66;;;-148.52;100.00
3254;BME280;1639;42.804;23.342;2023-03-03T06:14:41;73890.66;;;-148.52;100.00
3254;BME280;1639;42.804;23.342;2023-03-03T06:17:06;73888.59;;;-148.52;100.00
3254;BME280;1639;42.804;23.342;2023-03-03T06:19:32;73892.75;;;-148.52;100.00
3254;BME280;1639;42.804;23.342;2023-03-03T06:21:57;73886.53;;;-148.52;100.00
3254;BME280;1639;42.804;23.342;2023-03-03T06:24:23;73882.41;;;-148.52;100.00
3254;BME280;1639;42.804;23.342;2023-03-03T06:26:50;73886.53;;;-148.52;100.00
3254;BME280;1639;42.804;23.342;2023-03-03T06:29:16;73882.41;;;-148.52;100.00
3254;BME280;1639;42.804;23.342;2023-03-03T06:31:42;73876.19;;;-148.52;100.00
3254;BME280;1639;42.804;23.342;2023-03-03T06:34:08;73890.66;;;-148.52;100.00
3254;BME280;1639;42.804;23.342;2023-03-03T06:36:33;73874.13;;;-148.52;100.00
3254;BME280;1639;42.804;23.342;2023-03-03T06:38:58;73865.84;;;-148.52;100.00
3254;BME280;1639;42.804;23.342;2023-03-03T06:41:25;73857.56;;;-148.52;100.00
3254;BME280;1639;42.804;23.342;2023-03-03T06:43:50;73849.28;;;-148.52;100.00
3254;BME280;1639;42.804;23.342;2023-03-03T06:46:16;73859.63;;;-148.52;100.00
3254;BME280;1639;42.804;23.342;2023-03-03T06:48:41;73861.72;;;-148.52;100.00
3254;BME280;1639;42.804;23.342;2023-03-03T06:51:37;73843.09;;;-148.52;100.00
3254;BME280;1639;42.804;23.342;2023-03-03T06:54:27;73861.72;;;-148.52;100.00
3254;BME280;1639;42.804;23.342;2023-03-03T06:56:59;73861.72;;;-148.52;100.00
3254;BME280;1639;42.804;23.342;2023-03-03T06:59:27;73843.09;;;-148.52;100.00
3254;BME280;1639;42.804;23.342;2023-03-03T07:01:53;73836.88;;;-148.52;100.00
3254;BME280;1639;42.804;23.342;2023-03-03T07:04:23;73851.38;;;-148.52;100.00
3254;BME280;1639;42.804;23.342;2023-03-03T07:06:50;73874.13;;;-148.52;100.00
3254;BME280;1639;42.804;23.342;2023-03-03T07:09:24;73867.91;;;-148.52;100.00
3254;BME280;1639;42.804;23.342;2023-03-03T07:11:51;73869.97;;;-148.52;100.00
3254;BME280;1639;42.804;23.342;2023-03-03T07:14:19;73869.97;;;-148.52;100.00
3254;BME280;1639;42.804;23.342;2023-03-03T07:16:45;73853.44;;;-148.52;100.00
3254;BME280;1639;42.804;23.342;2023-03-03T07:19:20;73855.50;;;-148.52;100.00
3254;BME280;1639;42.804;23.342;2023-03-03T07:21:50;73841.03;;;-148.52;100.00
3254;BME280;1639;42.804;23.342;2023-03-03T07:24:27;73830.69;;;-148.52;100.00
3254;BME280;1639;42.804;23.342;2023-03-03T07:27:08;73814.13;;;-148.52;100.00
3254;BME280;1639;42.804;23.342;2023-03-03T07:29:36;73803.78;;;-148.52;100.00
3254;BME280;1639;42.804;23.342;2023-03-03T07:32:19;73807.94;;;-148.52;100.00
3254;BME280;1639;42.804;23.342;2023-03-03T07:34:47;73805.84;;;-148.52;100.00
3254;BME280;1639;42.804;23.342;2023-03-03T07:37:28;73803.78;;;-148.52;100.00
3254;BME280;1639;42.804;23.342;2023-03-03T07:39:55;73810.00;;;-148.52;100.00
3254;BME280;1639;42.804;23.342;2023-03-03T07:44:53;73818.25;;;-148.52;100.00
3254;BME280;1639;42.804;23.342;2023-03-03T07:47:35;73814.13;;;-148.52;100.00
3254;BME280;1639;42.804;23.342;2023-03-03T07:50:15;73797.59;;;-148.52;100.00
3254;BME280;1639;42.804;23.342;2023-03-03T07:52:50;73805.84;;;-148.52;100.00
3254;BME280;1639;42.804;23.342;2023-03-03T07:55:33;73785.16;;;-148.52;100.00
3254;BME280;1639;42.804;23.342;2023-03-03T07:58:43;73766.56;;;-148.52;100.00
3254;BME280;1639;42.804;23.342;2023-03-03T08:01:37;73787.25;;;-148.52;100.00
3254;BME280;1639;42.804;23.342;2023-03-03T08:04:12;73795.50;;;-148.52;100.00
3254;BME280;1639;42.804;23.342;2023-03-03T08:06:50;73787.25;;;-148.52;100.00
3254;BME280;1639;42.804;23.342;2023-03-03T08:14:27;73799.66;;;-148.52;100.00
3254;BME280;1639;42.804;23.342;2023-03-03T08:16:54;73812.06;;;-148.52;100.00
3254;BME280;1639;42.804;23.342;2023-03-03T08:19:19;73799.66;;;-148.52;100.00
3254;BME280;1639;42.804;23.342;2023-03-03T08:21:45;73791.38;;;-148.52;100.00
3254;BME280;1639;42.804;23.342;2023-03-03T08:24:10;73787.25;;;-148.52;100.00
3254;BME280;1639;42.804;23.342;2023-03-03T08:26:36;73791.38;;;-148.52;100.00
3254;BME280;1639;42.804;23.342;2023-03-03T08:29:02;73783.09;;;-148.52;100.00
3254;BME280;1639;42.804;23.342;2023-03-03T08:31:27;73787.25;;;-148.52;100.00
3254;BME280;1639;42.804;23.342;2023-03-03T08:33:53;73789.31;;;-148.52;100.00
3254;BME280;1639;42.804;23.342;2023-03-03T08:36:19;73774.81;;;-148.52;100.00
3254;BME280;1639;42.804;23.342;2023-03-03T08:38:44;73778.97;;;-148.52;100.00
3254;BME280;1639;42.804;23.342;2023-03-03T08:41:10;73783.09;;;-148.52;100.00
3254;BME280;1639;42.804;23.342;2023-03-03T08:43:36;73772.75;;;-148.52;100.00
3254;BME280;1639;42.804;23.342;2023-03-03T08:46:03;73778.97;;;-148.52;100.00
3254;BME280;1639;42.804;23.342;2023-03-03T08:48:30;73781.03;;;-148.52;100.00
3254;BME280;1639;42.804;23.342;2023-03-03T08:50:56;73783.09;;;-148.52;100.00
3254;BME280;1639;42.804;23.342;2023-03-03T08:53:22;73789.31;;;-148.52;100.00
3254;BME280;1639;42.804;23.342;2023-03-03T08:55:48;73787.25;;;-148.52;100.00
3254;BME280;1639;42.804;23.342;2023-03-03T08:58:15;73781.03;;;-148.52;100.00
3254;BME280;1639;42.804;23.342;2023-03-03T09:00:41;73764.47;;;-148.52;100.00
3254;BME280;1639;42.804;23.342;2023-03-03T09:03:07;73754.13;;;-148.52;100.00
3254;BME280;1639;42.804;23.342;2023-03-03T09:05:34;73758.28;;;-148.52;100.00
3254;BME280;1639;42.804;23.342;2023-03-03T09:07:59;73733.44;;;-148.52;100.00
3254;BME280;1639;42.804;23.342;2023-03-03T09:10:27;73745.88;;;-148.52;100.00
3254;BME280;1639;42.804;23.342;2023-03-03T09:12:54;73752.06;;;-148.52;100.00
3254;BME280;1639;42.804;23.342;2023-03-03T09:15:33;73750.00;;;-148.52;100.00
3254;BME280;1639;42.804;23.342;2023-03-03T09:18:19;73737.59;;;-148.52;100.00
3254;BME280;1639;42.804;23.342;2023-03-03T09:20:51;73739.66;;;-148.52;100.00
3254;BME280;1639;42.804;23.342;2023-03-03T09:23:36;73729.31;;;-148.52;100.00
3254;BME280;1639;42.804;23.342;2023-03-03T09:26:23;73729.31;;;-148.52;100.00
3254;BME280;1639;42.804;23.342;2023-03-03T09:28:53;73723.09;;;-148.52;100.00
3254;BME280;1639;42.804;23.342;2023-03-03T09:33:51;73696.22;;;-148.52;100.00
3254;BME280;1639;42.804;23.342;2023-03-03T09:36:24;73694.16;;;-148.52;100.00
3254;BME280;1639;42.804;23.342;2023-03-03T09:38:50;73698.28;;;-148.52;100.00
3254;BME280;1639;42.804;23.342;2023-03-03T09:49:02;73621.75;;;-148.52;100.00
3254;BME280;1639;42.804;23.342;2023-03-03T09:56:33;73625.88;;;-148.52;100.00
3254;BME280;1639;42.804;23.342;2023-03-03T09:59:41;73627.97;;;-148.52;100.00
3254;BME280;1639;42.804;23.342;2023-03-03T10:10:20;73576.25;;;-148.52;100.00
3254;BME280;1639;42.804;23.342;2023-03-03T10:18:29;73561.75;;;-148.52;100.00
3254;BME280;1639;42.804;23.342;2023-03-03T10:21:23;73551.41;;;-148.52;100.00
3254;BME280;1639;42.804;23.342;2023-03-03T10:23:54;73539.00;;;-148.52;100.00
3254;BME280;1639;42.804;23.342;2023-03-03T10:36:54;73497.63;;;-148.52;100.00
3254;BME280;1639;42.804;23.342;2023-03-03T10:53:26;73423.19;;;-148.52;100.00
3254;BME280;1639;42.804;23.342;2023-03-03T10:59:12;73406.63;;;-148.52;100.00
3254;BME280;1639;42.804;23.342;2023-03-03T11:05:14;73377.66;;;-148.52;100.00
3254;BME280;1639;42.804;23.342;2023-03-03T11:07:49;73361.13;;;-148.52;100.00
3254;BME280;1639;42.804;23.342;2023-03-03T11:40:01;73328.03;;;-148.52;100.00
3254;BME280;1639;42.804;23.342;2023-03-03T11:42:43;73317.69;;;-148.52;100.00
3254;BME280;1639;42.804;23.342;2023-03-03T11:45:17;73323.91;;;-148.52;100.00
3254;BME280;1639;42.804;23.342;2023-03-03T11:47:52;73334.22;;;-148.52;100.00
3254;BME280;1639;42.804;23.342;2023-03-03T11:50:35;73334.22;;;-148.52;100.00
3254;BME280;1639;42.804;23.342;2023-03-03T11:55:56;73319.75;;;-148.52;100.00
3254;BME280;1639;42.804;23.342;2023-03-03T11:58:34;73319.75;;;-148.52;100.00
3254;BME280;1639;42.804;23.342;2023-03-03T12:01:17;73307.34;;;-148.52;100.00
3254;BME280;1639;42.804;23.342;2023-03-03T12:06:47;73311.47;;;-148.52;100.00
3254;BME280;1639;42.804;23.342;2023-03-03T12:09:56;73313.56;;;-148.52;100.00
3254;BME280;1639;42.804;23.342;2023-03-03T12:17:50;73330.09;;;-148.52;100.00
3254;BME280;1639;42.804;23.342;2023-03-03T12:26:29;73361.13;;;-148.52;100.00
3254;BME280;1639;42.804;23.342;2023-03-03T12:31:57;73381.81;;;-148.52;100.00
3254;BME280;1639;42.804;23.342;2023-03-03T12:34:39;73402.50;;;-148.52;100.00
3254;BME280;1639;42.804;23.342;2023-03-03T12:37:30;73398.34;;;-148.52;100.00
3254;BME280;1639;42.804;23.342;2023-03-03T12:48:43;73404.56;;;-148.52;100.00
3254;BME280;1639;42.804;23.342;2023-03-03T12:54:21;73456.28;;;-148.52;100.00
3254;BME280;1639;42.804;23.342;2023-03-03T12:56:57;73466.63;;;-148.52;100.00
3254;BME280;1639;42.804;23.342;2023-03-03T13:07:58;73512.13;;;-148.52;100.00
3254;BME280;1639;42.804;23.342;2023-03-03T13:11:13;73510.06;;;-148.52;100.00
3254;BME280;1639;42.804;23.342;2023-03-03T13:14:03;73510.06;;;-148.52;100.00
3254;BME280;1639;42.804;23.342;2023-03-03T13:16:43;73505.91;;;-148.52;100.00
3254;BME280;1639;42.804;23.342;2023-03-03T13:19:25;73514.19;;;-148.52;100.00
3254;BME280;1639;42.804;23.342;2023-03-03T13:21:54;73501.78;;;-148.52;100.00
3254;BME280;1639;42.804;23.342;2023-03-03T13:25:00;73497.63;;;-148.52;100.00
3254;BME280;1639;42.804;23.342;2023-03-03T13:27:43;73510.06;;;-148.52;100.00
3254;BME280;1639;42.804;23.342;2023-03-03T13:30:20;73524.53;;;-148.52;100.00
3254;BME280;1639;42.804;23.342;2023-03-03T13:38:05;73522.47;;;-148.52;100.00
3254;BME280;1639;42.804;23.342;2023-03-03T13:43:18;73501.78;;;-148.52;100.00
3254;BME280;1639;42.804;23.342;2023-03-03T13:48:42;73485.22;;;-148.52;100.00
3254;BME280;1639;42.804;23.342;2023-03-03T13:54:12;73433.53;;;-148.52;100.00
3254;BME280;1639;42.804;23.342;2023-03-03T13:57:06;73412.84;;;-148.52;100.00
3254;BME280;1639;42.804;23.342;2023-03-03T14:05:44;73406.63;;;-148.52;100.00
3254;BME280;1639;42.804;23.342;2023-03-03T14:08:18;73406.63;;;-148.52;100.00
3254;BME280;1639;42.804;23.342;2023-03-03T14:11:09;73416.97;;;-148.52;100.00
3254;BME280;1639;42.804;23.342;2023-03-03T14:16:15;73427.31;;;-148.52;100.00
3254;BME280;1639;42.804;23.342;2023-03-03T14:18:56;73406.63;;;-148.52;100.00
3254;BME280;1639;42.804;23.342;2023-03-03T14:22:11;73408.69;;;-148.52;100.00
3254;BME280;1639;42.804;23.342;2023-03-03T14:24:30;73408.69;;;-148.52;100.00
3254;BME280;1639;42.804;23.342;2023-03-03T14:26:58;73416.97;;;-148.52;100.00
3254;BME280;1639;42.804;23.342;2023-03-03T14:31:53;73421.09;;;-148.52;100.00
3254;BME280;1639;42.804;23.342;2023-03-03T14:36:48;73419.03;;;-148.52;100.00
3254;BME280;1639;42.804;23.342;2023-03-03T14:39:34;73414.91;;;-148.52;100.00
3254;BME280;1639;42.804;23.342;2023-03-03T14:42:01;73427.31;;;-148.52;100.00
3254;BME280;1639;42.804;23.342;2023-03-03T14:44:35;73433.53;;;-148.52;100.00
3254;BME280;1639;42.804;23.342;2023-03-03T14:49:36;73419.03;;;-148.52;100.00
3254;BME280;1639;42.804;23.342;2023-03-03T14:54:42;73414.91;;;-148.52;100.00
3254;BME280;1639;42.804;23.342;2023-03-03T14:57:41;73414.91;;;-148.52;100.00
3254;BME280;1639;42.804;23.342;2023-03-03T15:05:29;73416.97;;;-148.52;100.00
3254;BME280;1639;42.804;23.342;2023-03-03T15:13:30;73408.69;;;-148.52;100.00
3254;BME280;1639;42.804;23.342;2023-03-03T15:18:26;73406.63;;;-148.52;100.00
3254;BME280;1639;42.804;23.342;2023-03-03T15:21:07;73404.56;;;-148.52;100.00
3254;BME280;1639;42.804;23.342;2023-03-03T15:29:10;73431.44;;;-148.52;100.00
3254;BME280;1639;42.804;23.342;2023-03-03T15:32:14;73423.19;;;-148.52;100.00
3254;BME280;1639;42.804;23.342;2023-03-03T15:34:47;73427.31;;;-148.52;100.00
3254;BME280;1639;42.804;23.342;2023-03-03T15:37:33;73416.97;;;-148.52;100.00
3254;BME280;1639;42.804;23.342;2023-03-03T15:42:32;73427.31;;;-148.52;100.00
3254;BME280;1639;42.804;23.342;2023-03-03T15:45:26;73439.72;;;-148.52;100.00
3254;BME280;1639;42.804;23.342;2023-03-03T15:56:47;73435.59;;;-148.52;100.00
3254;BME280;1639;42.804;23.342;2023-03-03T16:02:15;73452.13;;;-148.52;100.00
3254;BME280;1639;42.804;23.342;2023-03-03T16:05:02;73443.84;;;-148.52;100.00
3254;BME280;1639;42.804;23.342;2023-03-03T16:16:03;73448.00;;;-148.52;100.00
3254;BME280;1639;42.804;23.342;2023-03-03T16:19:10;73456.28;;;-148.52;100.00
3254;BME280;1639;42.804;23.342;2023-03-03T16:24:57;73468.69;;;-148.52;100.00
3254;BME280;1639;42.804;23.342;2023-03-03T16:27:40;73468.69;;;-148.52;100.00
3254;BME280;1639;42.804;23.342;2023-03-03T16:32:52;73464.53;;;-148.52;100.00
3254;BME280;1639;42.804;23.342;2023-03-03T16:35:25;73468.69;;;-148.52;100.00
3254;BME280;1639;42.804;23.342;2023-03-03T16:40:29;73472.81;;;-148.52;100.00
3254;BME280;1639;42.804;23.342;2023-03-03T16:43:32;73476.97;;;-148.52;100.00
3254;BME280;1639;42.804;23.342;2023-03-03T16:49:11;73476.97;;;-148.52;100.00
3254;BME280;1639;42.804;23.342;2023-03-03T16:52:11;73493.50;;;-148.52;100.00
3254;BME280;1639;42.804;23.342;2023-03-03T16:54:38;73491.44;;;-148.52;100.00